Time;durP1;ratioP1;P1;durP2;ratioP2;P2;SDS_P1;SDS_P2;PMS_P1;PMS_P2;Temp;Humidity;BMP_temperature;BMP_pressure;BME280_temperature;BME280_humidity;BME280_pressure;Samples;Min_cycle;Max_cycle;Signal;HPM_P1;HPM_P2
2022/04/13 00:00:13;;;;;;;6.80;4.33;;;14.70;99.90;;;;;;5084444;28;20467;-89
2022/04/13 00:02:53;;;;;;;9.23;5.43;;;14.60;99.90;;;;;;5080374;28;20924;-87
2022/04/13 00:05:57;;;;;;;10.33;5.27;;;14.60;99.90;;;;;;5080612;28;20469;-87
2022/04/13 00:08:40;;;;;;;6.23;4.23;;;14.70;99.90;;;;;;5069072;28;20541;-87
2022/04/13 00:11:18;;;;;;;7.20;4.43;;;14.70;99.90;;;;;;5089873;28;20461;-88
2022/04/13 00:13:52;;;;;;;6.83;4.07;;;14.70;99.90;;;;;;5091099;28;20507;-87
2022/04/13 00:16:46;;;;;;;5.57;4.30;;;14.70;99.90;;;;;;5080971;28;20432;-87
2022/04/13 00:19:20;;;;;;;5.97;4.00;;;14.60;99.90;;;;;;5082766;28;20468;-86
2022/04/13 00:21:55;;;;;;;7.77;4.20;;;14.70;99.90;;;;;;5089234;28;20423;-88
2022/04/13 00:24:30;;;;;;;6.93;4.17;;;14.60;99.90;;;;;;5089539;28;20548;-88
2022/04/13 00:27:03;;;;;;;6.80;4.37;;;14.60;99.90;;;;;;5093366;28;20370;-89
2022/04/13 00:29:37;;;;;;;13.30;3.97;;;14.50;99.90;;;;;;5083747;28;20471;-88
2022/04/13 00:32:22;;;;;;;6.60;4.13;;;14.60;99.90;;;;;;5081789;28;20443;-87
2022/04/13 00:34:51;;;;;;;7.03;4.00;;;14.70;99.90;;;;;;5090326;28;20439;-88
2022/04/13 00:37:20;;;;;;;9.60;4.50;;;14.60;99.90;;;;;;5097974;28;20439;-84
2022/04/13 00:39:51;;;;;;;7.13;4.40;;;14.50;99.90;;;;;;5094647;28;20525;-88
2022/04/13 00:42:27;;;;;;;11.33;4.40;;;14.40;99.90;;;;;;5079987;28;20463;-87
2022/04/13 00:44:55;;;;;;;6.40;4.33;;;14.30;99.90;;;;;;5078947;28;20533;-88
2022/04/13 00:47:22;;;;;;;7.00;4.70;;;14.30;99.90;;;;;;5077978;28;20901;-88
2022/04/13 00:49:54;;;;;;;10.03;3.90;;;14.30;99.90;;;;;;5077985;28;20475;-87
2022/04/13 00:52:29;;;;;;;7.43;4.97;;;14.30;99.90;;;;;;5077501;28;20434;-88
2022/04/13 00:55:09;;;;;;;8.00;4.50;;;14.20;99.90;;;;;;5080878;28;20501;-87
2022/04/13 00:57:52;;;;;;;8.47;4.60;;;14.20;99.90;;;;;;5089119;28;20448;-87
2022/04/13 01:00:28;;;;;;;7.50;4.43;;;14.10;99.90;;;;;;5110810;22;21140;-85
2022/04/13 01:03:09;;;;;;;7.97;4.20;;;14.10;99.90;;;;;;5095983;28;20428;-85
2022/04/13 01:05:46;;;;;;;8.20;4.83;;;14.20;99.90;;;;;;5091413;28;20468;-85
2022/04/13 01:11:32;;;;;;;9.33;4.40;;;14.10;99.90;;;;;;5082835;22;20499;-85
2022/04/13 01:14:28;;;;;;;9.83;4.80;;;14.10;99.90;;;;;;5065533;28;20428;-85
2022/04/13 01:17:20;;;;;;;7.63;4.50;;;14.10;99.90;;;;;;5061904;28;20453;-85
2022/04/13 01:20:17;;;;;;;7.50;4.23;;;14.00;99.90;;;;;;5062056;28;20444;-85
2022/04/13 01:22:56;;;;;;;7.63;4.43;;;14.00;99.90;;;;;;5060990;28;20459;-86
2022/04/13 01:26:09;;;;;;;6.60;4.53;;;13.90;99.90;;;;;;5061316;28;20471;-86
2022/04/13 01:29:04;;;;;;;6.67;4.20;;;13.80;99.90;;;;;;5060468;28;20429;-86
2022/04/13 01:31:53;;;;;;;9.83;4.83;;;13.70;99.90;;;;;;5069376;28;20476;-85
2022/04/13 01:34:37;;;;;;;6.83;4.40;;;13.70;99.90;;;;;;5077005;28;20425;-86
2022/04/13 01:37:13;;;;;;;6.90;3.60;;;13.80;99.90;;;;;;5063972;28;20428;-86
2022/04/13 01:39:55;;;;;;;7.87;5.00;;;13.80;99.90;;;;;;5075778;28;20487;-83
2022/04/13 01:42:49;;;;;;;;;;;;;;;;;;;;;
2022/04/13 01:45:38;;;;;;;8.60;4.53;;;13.70;99.90;;;;;;5062942;28;20492;-86
2022/04/13 01:48:16;;;;;;;6.77;4.00;;;13.60;99.90;;;;;;5061662;28;20472;-86
2022/04/13 01:50:52;;;;;;;5.60;3.80;;;13.70;99.90;;;;;;5062543;28;20538;-85
2022/04/13 01:56:12;;;;;;;9.80;4.30;;;13.70;99.90;;;;;;5061550;28;20451;-84
2022/04/13 01:58:52;;;;;;;7.87;4.13;;;13.50;99.90;;;;;;5072940;28;20404;-83
2022/04/13 02:04:21;;;;;;;6.90;4.30;;;13.40;99.90;;;;;;5057370;28;20455;-84
2022/04/13 02:06:59;;;;;;;6.80;3.60;;;13.30;99.90;;;;;;5058254;28;20472;-85
2022/04/13 02:09:42;;;;;;;6.50;4.00;;;13.30;99.90;;;;;;5055478;28;20431;-84
2022/04/13 02:12:30;;;;;;;10.07;4.27;;;13.30;99.90;;;;;;5057152;28;20460;-85
2022/04/13 02:17:58;;;;;;;8.80;4.50;;;13.30;99.90;;;;;;5057520;28;20441;-83
2022/04/13 02:27:09;;;;;;;9.33;3.60;;;13.20;99.90;;;;;;5057344;28;21019;-85
2022/04/13 02:29:53;;;;;;;6.93;4.27;;;13.20;99.90;;;;;;5061667;28;20460;-85
2022/04/13 02:32:26;;;;;;;7.33;4.13;;;13.30;99.90;;;;;;5061371;28;20452;-85
2022/04/13 02:34:57;;;;;;;6.00;3.80;;;13.40;99.90;;;;;;5061575;28;20440;-84
2022/04/13 02:37:29;;;;;;;6.13;3.80;;;13.30;99.90;;;;;;5063975;28;20464;-85
2022/04/13 02:40:02;;;;;;;8.97;3.60;;;13.30;99.90;;;;;;5070601;28;20472;-85
2022/04/13 02:42:33;;;;;;;6.20;3.20;;;13.20;99.90;;;;;;5064236;28;20455;-85
2022/04/13 02:45:13;;;;;;;5.10;3.53;;;13.30;99.90;;;;;;5062077;28;20924;-85
2022/04/13 02:48:07;;;;;;;7.60;4.00;;;13.00;99.90;;;;;;5062913;28;20459;-86
2022/04/13 02:50:52;;;;;;;9.20;4.13;;;13.00;99.90;;;;;;5062443;28;20475;-86
2022/04/13 02:53:23;;;;;;;6.20;3.97;;;13.00;99.90;;;;;;5063198;28;20460;-85
2022/04/13 03:02:06;;;;;;;6.37;4.10;;;12.80;99.90;;;;;;5063825;28;20464;-85
2022/04/13 03:04:44;;;;;;;7.80;4.60;;;12.90;99.90;;;;;;5062571;28;20824;-85
2022/04/13 03:07:29;;;;;;;8.30;4.20;;;12.90;99.90;;;;;;5063861;28;20980;-85
2022/04/13 03:10:45;;;;;;;7.60;4.03;;;12.90;99.90;;;;;;5063827;28;20932;-85
2022/04/13 03:17:07;;;;;;;7.27;3.37;;;12.70;99.90;;;;;;5059958;28;20472;-85
2022/04/13 03:20:10;;;;;;;6.77;4.10;;;12.70;99.90;;;;;;5062278;28;20467;-85
2022/04/13 03:22:52;;;;;;;5.90;3.80;;;12.60;99.90;;;;;;5068859;28;20448;-84
2022/04/13 03:25:27;;;;;;;6.40;4.17;;;12.50;99.90;;;;;;5072529;28;20432;-85
2022/04/13 03:28:05;;;;;;;5.67;3.83;;;12.60;99.90;;;;;;5064086;28;20477;-85
2022/04/13 03:30:40;;;;;;;5.77;3.67;;;12.60;99.90;;;;;;5061399;28;20442;-85
2022/04/13 03:33:30;;;;;;;5.70;3.70;;;12.50;99.90;;;;;;5065086;28;20941;-84
2022/04/13 03:36:11;;;;;;;6.40;3.80;;;12.30;99.90;;;;;;5063795;28;20799;-85
2022/04/13 03:39:28;;;;;;;5.93;3.47;;;12.30;99.90;;;;;;5062291;28;20467;-84
2022/04/13 03:41:56;;;;;;;10.80;4.20;;;12.30;99.90;;;;;;5061610;28;20981;-85
2022/04/13 03:47:38;;;;;;;7.37;4.20;;;12.30;99.90;;;;;;5060532;28;20462;-85
2022/04/13 03:50:21;;;;;;;7.70;3.50;;;12.20;99.90;;;;;;5061555;28;20459;-85
2022/04/13 03:52:59;;;;;;;9.47;4.00;;;12.20;99.90;;;;;;5061840;28;20459;-84
2022/04/13 03:55:33;;;;;;;6.67;4.27;;;12.20;99.90;;;;;;5062109;28;20448;-85
2022/04/13 03:58:11;;;;;;;7.63;3.87;;;12.30;99.90;;;;;;5071754;28;20453;-83
2022/04/13 04:00:48;;;;;;;6.20;4.20;;;12.20;99.90;;;;;;5078129;28;20450;-84
2022/04/13 04:03:26;;;;;;;7.60;4.20;;;12.10;99.90;;;;;;5069850;28;20470;-85
2022/04/13 04:06:09;;;;;;;5.70;3.63;;;12.00;99.90;;;;;;5064924;28;20449;-84
2022/04/13 04:11:56;;;;;;;10.80;4.27;;;12.00;99.90;;;;;;5054571;28;20488;-86
2022/04/13 04:14:54;;;;;;;7.97;4.07;;;12.10;99.90;;;;;;5062057;28;20543;-84
2022/04/13 04:17:32;;;;;;;6.30;3.90;;;12.10;99.90;;;;;;5065144;28;20433;-86
2022/04/13 04:20:16;;;;;;;6.60;3.97;;;12.00;99.90;;;;;;5078590;28;20523;-84
2022/04/13 04:22:47;;;;;;;5.43;3.77;;;12.00;99.90;;;;;;5073846;28;20502;-85
2022/04/13 04:25:28;;;;;;;8.03;3.53;;;12.10;99.90;;;;;;5067289;28;20428;-84
2022/04/13 04:28:11;;;;;;;9.03;4.50;;;12.10;99.90;;;;;;5076038;28;20467;-85
2022/04/13 04:33:54;;;;;;;7.27;4.20;;;11.90;99.90;;;;;;5064315;28;20866;-85
2022/04/13 04:36:40;;;;;;;5.97;4.50;;;12.00;99.90;;;;;;5063422;28;20440;-86
2022/04/13 04:42:58;;;;;;;;;;;;;;;;;;;;;
2022/04/13 04:46:10;;;;;;;8.87;4.43;;;11.90;99.90;;;;;;4978723;28;20472;-85
2022/04/13 04:49:11;;;;;;;8.10;3.63;;;11.80;99.90;;;;;;5014750;28;20453;-85
2022/04/13 04:52:02;;;;;;;7.00;4.47;;;11.80;99.90;;;;;;5072048;28;20457;-83
2022/04/13 04:55:06;;;;;;;9.97;4.73;;;11.80;99.90;;;;;;5075574;28;20440;-83
2022/04/13 04:58:05;;;;;;;6.57;4.53;;;11.80;99.90;;;;;;5065749;28;20415;-85
2022/04/13 05:00:53;;;;;;;7.67;4.63;;;11.90;99.90;;;;;;5068885;28;20455;-84
2022/04/13 05:03:49;;;;;;;10.87;4.60;;;11.90;99.90;;;;;;5067029;28;20433;-85
2022/04/13 05:06:41;;;;;;;9.03;4.40;;;12.00;99.90;;;;;;5061296;28;20510;-84
2022/04/13 05:09:35;;;;;;;6.17;3.83;;;12.00;99.90;;;;;;5065689;28;20453;-84
2022/04/13 05:12:39;;;;;;;6.67;4.10;;;12.00;99.90;;;;;;5063679;28;20449;-86
2022/04/13 05:22:08;;;;;;;9.07;4.50;;;12.10;99.90;;;;;;5071155;28;20476;-84
2022/04/13 05:25:09;;;;;;;8.03;4.43;;;12.10;99.90;;;;;;5062277;28;20459;-85
2022/04/13 05:27:59;;;;;;;;;;;;;;;;;;;;;
2022/04/13 05:33:52;;;;;;;7.10;4.50;;;12.10;99.90;;;;;;5060173;28;20576;-84
2022/04/13 05:39:52;;;;;;;;;;;;;;;;;;;;;
2022/04/13 06:43:43;;;;;;;11.10;5.23;;;14.60;99.90;;;;;;4985034;28;20462;-86
2022/04/13 06:47:11;;;;;;;9.00;4.90;;;14.90;99.90;;;;;;5020186;28;20456;-86
2022/04/13 06:50:39;;;;;;;;;;;;;;;;;;;;;
2022/04/13 06:56:39;;;;;;;7.53;4.93;;;15.30;99.90;;;;;;5024376;28;20587;-86
2022/04/13 06:59:28;;;;;;;13.00;5.20;;;15.50;99.90;;;;;;5064338;28;20491;-86
2022/04/13 07:01:55;;;;;;;10.03;5.23;;;15.70;99.90;;;;;;5089035;22;20560;-88
2022/04/13 07:04:22;;;;;;;13.23;6.97;;;15.80;99.90;;;;;;5084365;28;20418;-87
2022/04/13 07:06:53;;;;;;;7.63;5.23;;;16.00;99.90;;;;;;5087988;28;20556;-86
2022/04/13 07:09:20;;;;;;;10.00;6.00;;;16.20;99.90;;;;;;5085415;28;20437;-86
2022/04/13 07:11:47;;;;;;;7.33;5.70;;;16.30;99.90;;;;;;5090485;28;20438;-86
2022/04/13 07:14:15;;;;;;;10.13;5.10;;;16.40;99.90;;;;;;5090239;28;20923;-87
2022/04/13 07:16:42;;;;;;;10.70;6.17;;;16.50;99.90;;;;;;5091395;28;20948;-86
2022/04/13 07:19:08;;;;;;;12.90;6.20;;;16.50;99.90;;;;;;5099042;28;20419;-83
2022/04/13 07:21:35;;;;;;;14.23;6.33;;;16.40;99.90;;;;;;5098932;28;20459;-85
2022/04/13 07:24:04;;;;;;;10.40;6.17;;;16.30;99.90;;;;;;5094204;28;20466;-86
2022/04/13 07:26:34;;;;;;;7.90;6.50;;;16.30;99.90;;;;;;5089725;28;20490;-87
2022/04/13 07:29:01;;;;;;;12.53;7.20;;;16.20;99.90;;;;;;5088490;28;20816;-87
2022/04/13 07:31:29;;;;;;;10.87;7.20;;;16.30;99.90;;;;;;5087421;28;20503;-87
2022/04/13 07:33:56;;;;;;;11.07;7.30;;;16.30;99.90;;;;;;5083030;28;20776;-88
2022/04/13 07:36:23;;;;;;;13.87;8.07;;;16.50;99.90;;;;;;5086079;28;20411;-88
2022/04/13 07:38:51;;;;;;;19.23;8.30;;;16.60;99.90;;;;;;5090588;28;20415;-87
2022/04/13 07:41:19;;;;;;;16.30;8.60;;;16.60;99.90;;;;;;5086065;28;20477;-88
2022/04/13 07:43:47;;;;;;;15.80;7.40;;;16.60;99.90;;;;;;5085151;28;20418;-87
2022/04/13 07:46:13;;;;;;;12.23;7.90;;;16.60;99.90;;;;;;5083934;28;20530;-87
2022/04/13 07:48:46;;;;;;;15.23;7.23;;;16.70;99.90;;;;;;5096169;28;20426;-87
2022/04/13 07:51:13;;;;;;;20.60;8.60;;;16.80;99.90;;;;;;5085528;28;20446;-86
2022/04/13 07:53:40;;;;;;;11.40;7.40;;;16.80;99.90;;;;;;5091280;28;20423;-89
2022/04/13 07:56:08;;;;;;;12.33;7.47;;;16.80;99.90;;;;;;5092596;28;20435;-89
2022/04/13 07:58:37;;;;;;;16.63;7.73;;;16.90;99.90;;;;;;5092085;28;20444;-88
2022/04/13 08:01:05;;;;;;;11.07;7.97;;;16.90;99.90;;;;;;5091759;28;20471;-88
2022/04/13 08:03:32;;;;;;;14.23;7.40;;;17.10;99.90;;;;;;5092137;28;20965;-87
2022/04/13 08:05:59;;;;;;;11.90;7.27;;;17.30;99.90;;;;;;5093190;28;20447;-87
2022/04/13 08:08:29;;;;;;;15.50;7.23;;;17.30;99.90;;;;;;5091001;28;20453;-87
2022/04/13 08:10:56;;;;;;;12.57;6.40;;;17.30;99.90;;;;;;5090701;28;20478;-87
2022/04/13 08:13:23;;;;;;;12.50;7.93;;;17.20;99.90;;;;;;5090548;28;20407;-88
2022/04/13 08:15:52;;;;;;;10.43;7.03;;;17.20;99.90;;;;;;5091689;28;20410;-86
2022/04/13 08:18:19;;;;;;;15.37;7.20;;;17.30;99.90;;;;;;5097054;28;20474;-88
2022/04/13 08:20:46;;;;;;;9.20;6.47;;;17.50;99.90;;;;;;5097084;28;20441;-89
2022/04/13 08:23:13;;;;;;;9.77;6.93;;;17.60;99.90;;;;;;5087464;28;20452;-88
2022/04/13 08:25:40;;;;;;;12.57;8.13;;;17.60;99.90;;;;;;5085675;28;20496;-88
2022/04/13 08:28:08;;;;;;;10.23;5.90;;;17.60;99.90;;;;;;5088252;28;20540;-88
2022/04/13 08:30:35;;;;;;;12.63;6.80;;;17.70;99.90;;;;;;5091402;28;20492;-88
2022/04/13 08:33:03;;;;;;;11.37;6.63;;;17.80;99.90;;;;;;5090760;28;20422;-88
2022/04/13 08:35:30;;;;;;;12.10;7.00;;;18.00;99.90;;;;;;5088565;28;20856;-89
2022/04/13 08:37:57;;;;;;;11.00;7.00;;;18.10;99.60;;;;;;5087822;28;20440;-88
2022/04/13 08:40:24;;;;;;;13.30;6.60;;;18.20;99.20;;;;;;5085954;28;20414;-89
2022/04/13 08:43:03;;;;;;;11.13;6.03;;;18.30;98.50;;;;;;5091322;28;20496;-87
2022/04/13 08:45:45;;;;;;;10.07;5.70;;;18.40;97.60;;;;;;5090131;28;20414;-88
2022/04/13 08:48:18;;;;;;;9.77;6.10;;;18.40;96.00;;;;;;5086285;28;20471;-89
2022/04/13 08:50:46;;;;;;;6.30;3.77;;;18.60;96.10;;;;;;5092062;28;20451;-89
2022/04/13 08:53:20;;;;;;;6.43;3.63;;;18.80;92.40;;;;;;5090846;28;20445;-88
2022/04/13 08:55:56;;;;;;;8.90;3.90;;;18.80;91.60;;;;;;5086819;28;20412;-87
2022/04/13 08:58:32;;;;;;;8.43;3.53;;;18.80;91.50;;;;;;5087343;28;20479;-88
2022/04/13 09:01:16;;;;;;;;;;;;;;;;;;;;;
2022/04/13 09:03:49;;;;;;;7.53;3.93;;;19.10;89.30;;;;;;5081177;28;20453;-88
2022/04/13 09:06:17;;;;;;;5.40;2.60;;;19.10;87.70;;;;;;5093324;28;20477;-87
2022/04/13 09:08:50;;;;;;;8.60;3.90;;;19.10;80.80;;;;;;5092683;28;20511;-85
2022/04/13 09:11:21;;;;;;;8.10;4.27;;;19.20;84.80;;;;;;5093849;28;20535;-86
2022/04/13 09:13:53;;;;;;;6.07;3.63;;;19.30;84.80;;;;;;5084603;28;20792;-87
2022/04/13 09:16:20;;;;;;;10.37;3.00;;;19.50;82.60;;;;;;5082674;28;20444;-87
2022/04/13 09:18:50;;;;;;;7.83;3.30;;;19.60;81.00;;;;;;5084917;28;20509;-86
2022/04/13 09:21:18;;;;;;;6.90;2.63;;;19.70;80.40;;;;;;5080943;28;20480;-87
2022/04/13 09:23:52;;;;;;;8.40;3.20;;;19.90;76.00;;;;;;5085663;28;20452;-88
2022/04/13 09:26:20;;;;;;;8.37;3.13;;;19.90;74.90;;;;;;5087616;28;20451;-89
2022/04/13 09:28:47;;;;;;;8.83;3.70;;;19.90;77.70;;;;;;5090456;28;20464;-88
2022/04/13 09:31:14;;;;;;;7.87;3.37;;;19.90;79.30;;;;;;5093561;28;20544;-88
2022/04/13 09:33:42;;;;;;;7.87;4.10;;;20.00;79.10;;;;;;5086799;28;20431;-88
2022/04/13 09:36:10;;;;;;;6.90;3.00;;;20.10;78.20;;;;;;5084356;28;20462;-87
2022/04/13 09:38:37;;;;;;;8.17;3.80;;;20.10;75.10;;;;;;5087077;28;20490;-89
2022/04/13 09:41:09;;;;;;;8.80;4.40;;;20.20;76.30;;;;;;5084869;28;20803;-89
2022/04/13 09:43:39;;;;;;;8.33;3.63;;;20.30;77.20;;;;;;5095387;28;20470;-88
2022/04/13 09:46:08;;;;;;;8.90;4.57;;;20.30;74.40;;;;;;5094045;28;20432;-87
2022/04/13 09:55:43;;;;;;;7.90;4.07;;;20.40;78.10;;;;;;4935695;28;20448;-88
2022/04/13 09:58:14;;;;;;;6.80;3.67;;;20.50;78.50;;;;;;5046874;28;20441;-88
2022/04/13 10:00:48;;;;;;;10.20;4.50;;;20.60;78.20;;;;;;5047042;28;20450;-88
2022/04/13 10:03:16;;;;;;;7.20;3.97;;;20.60;77.70;;;;;;5051238;28;20434;-88
2022/04/13 10:05:46;;;;;;;10.07;3.43;;;20.70;76.90;;;;;;5060753;28;20447;-88
2022/04/13 10:08:22;;;;;;;6.60;3.67;;;20.70;75.90;;;;;;5083964;28;20485;-88
2022/04/13 10:10:56;;;;;;;16.77;4.67;;;20.60;76.40;;;;;;5083513;28;20443;-88
2022/04/13 10:13:50;;;;;;;8.60;3.80;;;20.70;76.50;;;;;;5082592;28;20470;-87
2022/04/13 10:19:37;;;;;;;8.33;3.40;;;20.70;73.00;;;;;;5013430;28;20803;-87
2022/04/13 10:22:08;;;;;;;8.63;4.30;;;20.80;72.80;;;;;;5043596;28;20478;-86
2022/04/13 10:24:45;;;;;;;8.10;3.53;;;20.90;72.00;;;;;;5064294;28;20476;-89
2022/04/13 10:27:27;;;;;;;12.13;3.93;;;20.90;72.30;;;;;;5086152;28;20451;-89
2022/04/13 10:29:54;;;;;;;11.13;4.23;;;21.00;73.10;;;;;;5084831;28;20655;-87
2022/04/13 10:32:26;;;;;;;9.83;3.47;;;21.10;73.00;;;;;;5090633;28;20452;-84
2022/04/13 10:34:56;;;;;;;10.60;4.30;;;21.20;72.80;;;;;;5095961;28;20447;-86
2022/04/13 10:37:26;;;;;;;8.17;3.47;;;21.20;74.60;;;;;;5089128;28;20462;-88
2022/04/13 10:40:00;;;;;;;8.20;3.30;;;21.10;74.50;;;;;;5081631;28;20431;-87
2022/04/13 10:42:33;;;;;;;10.03;3.90;;;21.00;75.90;;;;;;5086022;28;20952;-87
2022/04/13 10:45:10;;;;;;;6.20;3.60;;;21.10;75.40;;;;;;5084264;28;20435;-88
2022/04/13 10:47:59;;;;;;;7.63;4.17;;;21.20;75.30;;;;;;5084798;28;20474;-87
2022/04/13 10:50:37;;;;;;;15.10;4.73;;;21.20;75.00;;;;;;5097537;28;20412;-88
2022/04/13 10:53:16;;;;;;;8.67;4.70;;;21.20;75.80;;;;;;5090749;28;20439;-87
2022/04/13 10:55:45;;;;;;;6.90;3.80;;;21.30;76.20;;;;;;5087915;28;20460;-86
2022/04/13 10:58:29;;;;;;;9.37;4.00;;;21.50;75.20;;;;;;5092834;28;20456;-88
2022/04/13 11:03:42;;;;;;;6.70;4.10;;;21.60;75.40;;;;;;1277274;26;20468;-89
2022/04/13 11:06:13;;;;;;;13.90;5.67;;;21.70;75.50;;;;;;5067148;28;20429;-87
2022/04/13 11:08:48;;;;;;;10.80;4.73;;;21.80;76.40;;;;;;5078255;28;20456;-87
2022/04/13 11:14:02;;;;;;;9.03;4.17;;;21.70;77.10;;;;;;5058729;28;20470;-86
2022/04/13 11:16:28;;;;;;;8.13;3.90;;;21.70;77.00;;;;;;5064103;28;20448;-88
2022/04/13 11:19:25;;;;;;;6.80;3.30;;;21.70;76.60;;;;;;5062767;28;20856;-87
2022/04/13 11:22:14;;;;;;;8.20;3.77;;;21.70;76.00;;;;;;4981193;28;20480;-87
2022/04/13 11:24:56;;;;;;;9.63;3.47;;;21.70;75.50;;;;;;5007162;28;21027;-88
2022/04/13 11:27:25;;;;;;;10.53;3.70;;;21.60;73.50;;;;;;5072016;28;20487;-87
2022/04/13 11:30:07;;;;;;;11.47;3.70;;;21.70;73.60;;;;;;5070441;28;20448;-88
2022/04/13 11:32:35;;;;;;;7.70;4.13;;;21.80;74.40;;;;;;5064832;28;20564;-87
2022/04/13 11:35:04;;;;;;;8.70;3.53;;;21.90;74.10;;;;;;5065869;28;20445;-87
2022/04/13 11:38:05;;;;;;;10.00;3.60;;;22.00;72.50;;;;;;5075307;28;20503;-85
2022/04/13 11:40:34;;;;;;;8.10;3.17;;;22.00;72.60;;;;;;5078432;28;20429;-85
2022/04/13 11:43:15;;;;;;;12.93;3.87;;;22.00;71.40;;;;;;5075941;28;20455;-86
2022/04/13 11:45:56;;;;;;;9.17;3.93;;;22.00;71.30;;;;;;5077635;28;20532;-87
2022/04/13 11:48:34;;;;;;;10.80;5.17;;;22.10;71.60;;;;;;5065489;28;20551;-87
2022/04/13 11:51:30;;;;;;;8.23;3.20;;;22.20;71.60;;;;;;5066364;28;20472;-88
2022/04/13 11:54:08;;;;;;;6.13;3.17;;;22.20;70.60;;;;;;5068856;28;20473;-86
2022/04/13 11:56:37;;;;;;;6.97;3.73;;;22.20;70.40;;;;;;5071590;28;20468;-85
2022/04/13 11:59:05;;;;;;;7.03;3.17;;;22.30;69.50;;;;;;5077092;28;20464;-88
2022/04/13 12:01:59;;;;;;;9.70;3.97;;;22.30;69.30;;;;;;5069672;28;20484;-87
2022/04/13 12:04:31;;;;;;;16.57;4.50;;;22.30;68.50;;;;;;5065750;28;20456;-87
2022/04/13 12:07:00;;;;;;;7.60;3.33;;;22.50;68.80;;;;;;5064481;28;20444;-88
2022/04/13 12:09:33;;;;;;;7.40;3.10;;;22.50;68.00;;;;;;5064520;28;20534;-87
2022/04/13 12:12:08;;;;;;;4.70;3.10;;;22.60;67.80;;;;;;5066628;28;20484;-88
2022/04/13 12:14:41;;;;;;;6.00;3.23;;;22.60;67.40;;;;;;5066346;28;20439;-87
2022/04/13 12:17:19;;;;;;;7.77;3.37;;;22.70;66.90;;;;;;5070248;28;20534;-87
2022/04/13 12:20:06;;;;;;;9.00;2.90;;;22.70;66.00;;;;;;5071895;28;20442;-87
2022/04/13 12:22:44;;;;;;;21.47;3.20;;;22.50;65.20;;;;;;5068843;28;20544;-87
2022/04/13 12:25:21;;;;;;;12.30;3.07;;;22.50;66.20;;;;;;5073548;28;20455;-88
2022/04/13 12:28:05;;;;;;;8.07;2.70;;;22.60;65.20;;;;;;5064379;28;20441;-87
2022/04/13 12:30:35;;;;;;;8.83;2.83;;;22.70;64.50;;;;;;5061069;28;20452;-87
2022/04/13 12:33:21;;;;;;;6.57;2.60;;;22.80;64.90;;;;;;5061269;28;20425;-88
2022/04/13 12:35:52;;;;;;;5.63;2.80;;;22.90;64.00;;;;;;5062781;28;20496;-88
2022/04/13 12:38:46;;;;;;;6.40;3.10;;;22.80;64.00;;;;;;5063224;28;20499;-88
2022/04/13 12:41:14;;;;;;;7.73;3.00;;;22.60;64.30;;;;;;5094360;22;20486;-89
2022/04/13 12:43:44;;;;;;;9.50;3.30;;;22.50;63.50;;;;;;5107959;28;20523;-89
2022/04/13 12:46:16;;;;;;;12.33;3.57;;;22.60;63.70;;;;;;5107878;28;20438;-87
2022/04/13 12:48:49;;;;;;;10.53;3.47;;;22.70;63.70;;;;;;5103132;28;20524;-87
2022/04/13 12:51:19;;;;;;;6.10;3.00;;;22.80;63.90;;;;;;5098279;28;20479;-87
2022/04/13 12:53:58;;;;;;;8.40;2.20;;;22.90;63.70;;;;;;5084815;28;20447;-87
2022/04/13 12:56:27;;;;;;;8.47;3.20;;;23.00;62.50;;;;;;5086153;28;20899;-88
2022/04/13 12:58:56;;;;;;;10.60;3.10;;;23.00;63.30;;;;;;5092674;28;20452;-86
2022/04/13 13:40:36;;;;;;;11.47;3.13;;;23.80;62.30;;;;;;4902940;29;20507;-87
2022/04/13 13:46:50;;;;;;;4.07;2.23;;;23.80;59.80;;;;;;4958799;29;20445;-87
2022/04/13 13:49:36;;;;;;;8.53;2.90;;;23.90;59.80;;;;;;4994698;28;20485;-87
2022/04/13 14:13:37;;;;;;;11.83;3.43;;;24.00;59.20;;;;;;4937636;29;20456;-86
2022/04/13 14:20:23;;;;;;;;;;;;;;;;;;;;;
2022/04/13 14:37:54;;;;;;;;;;;;;;;;;;;;;
2022/04/13 15:18:33;;;;;;;;;;;;;;;;;;;;;
2022/04/13 16:09:45;;;;;;;6.70;3.20;;;24.80;55.50;;;;;;4928990;28;20485;-88
2022/04/13 16:41:48;;;;;;;8.30;2.90;;;23.50;56.00;;;;;;4833874;29;20461;-88
2022/04/13 16:44:42;;;;;;;11.70;2.87;;;23.40;55.80;;;;;;4885170;29;20461;-88
2022/04/13 16:53:58;;;;;;;7.90;2.77;;;23.40;55.30;;;;;;4848685;29;20441;-88
2022/04/13 17:43:54;;;;;;;;;;;;;;;;;;;;;
2022/04/13 17:46:56;;;;;;;;;;;;;;;;;;;;;
2022/04/13 17:56:47;;;;;;;7.97;5.80;;;22.20;64.40;;;;;;4901635;29;20421;-88
2022/04/13 18:03:12;;;;;;;14.63;4.37;;;22.10;65.70;;;;;;5041717;28;20481;-87
2022/04/13 18:22:40;;;;;;;13.67;5.00;;;21.50;69.70;;;;;;4965838;28;20808;-87
2022/04/13 18:25:12;;;;;;;15.20;7.50;;;21.50;69.40;;;;;;5043257;28;20480;-86
2022/04/13 18:28:22;;;;;;;16.10;6.70;;;21.30;71.30;;;;;;5043792;28;20445;-87
2022/04/13 18:34:25;;;;;;;15.13;7.13;;;21.00;72.40;;;;;;5003662;28;20450;-87
2022/04/13 18:36:52;;;;;;;14.80;7.50;;;21.00;73.10;;;;;;5009399;28;20938;-88
2022/04/13 18:39:21;;;;;;;18.33;6.87;;;20.90;74.10;;;;;;5048097;28;20504;-87
2022/04/13 18:41:48;;;;;;;20.50;9.33;;;20.80;75.30;;;;;;5049101;28;20469;-86
2022/04/13 18:44:15;;;;;;;13.83;7.20;;;20.60;75.80;;;;;;5051658;28;20441;-86
2022/04/13 18:46:45;;;;;;;11.23;6.73;;;20.50;77.00;;;;;;5054609;28;20518;-86
2022/04/13 18:49:12;;;;;;;19.67;7.37;;;20.40;77.50;;;;;;5058280;28;20479;-86
2022/04/13 18:51:39;;;;;;;13.93;7.77;;;20.30;78.00;;;;;;5051125;28;20488;-87
2022/04/13 18:54:06;;;;;;;15.63;5.97;;;20.20;78.80;;;;;;5054164;28;20449;-86
2022/04/13 18:56:34;;;;;;;17.43;8.43;;;20.20;79.60;;;;;;5053821;28;20453;-87
2022/04/13 18:59:03;;;;;;;12.10;8.20;;;20.10;80.10;;;;;;5057186;28;20480;-86
2022/04/13 19:04:24;;;;;;;13.33;6.37;;;19.90;80.80;;;;;;3386810;26;20540;-87
2022/04/13 19:07:30;;;;;;;12.70;7.00;;;19.90;80.80;;;;;;5067615;28;20808;-88
2022/04/13 19:13:57;;;;;;;9.70;6.43;;;19.80;81.00;;;;;;5083134;28;20447;-86
2022/04/13 19:16:39;;;;;;;12.03;6.50;;;19.90;81.50;;;;;;5088930;28;20435;-86
2022/04/13 19:19:54;;;;;;;16.90;5.90;;;19.80;81.80;;;;;;5097369;28;20420;-87
2022/04/13 19:22:43;;;;;;;15.47;5.53;;;19.80;82.20;;;;;;5097984;28;20582;-88
2022/04/13 19:25:33;;;;;;;10.80;5.90;;;19.80;83.20;;;;;;5095342;28;20440;-87
2022/04/13 19:28:41;;;;;;;;;;;;;;;;;;;;;
2022/04/13 19:31:45;;;;;;;16.20;6.20;;;19.60;84.20;;;;;;5083804;28;20477;-88
2022/04/13 19:40:29;;;;;;;12.67;5.50;;;19.30;85.50;;;;;;5080879;28;20511;-87
2022/04/13 19:43:07;;;;;;;11.90;5.90;;;19.20;85.70;;;;;;5084035;28;20482;-88
2022/04/13 19:45:51;;;;;;;19.40;6.43;;;19.20;86.00;;;;;;5083383;28;20427;-88
2022/04/13 19:48:46;;;;;;;8.93;5.23;;;19.10;86.70;;;;;;5085088;28;20506;-87
2022/04/13 19:51:15;;;;;;;13.93;6.10;;;19.00;87.60;;;;;;5080567;28;20475;-87
2022/04/13 19:54:02;;;;;;;12.53;5.37;;;18.90;88.20;;;;;;5084505;28;20459;-87
2022/04/13 20:00:01;;;;;;;12.73;5.90;;;18.80;89.50;;;;;;5082447;28;20478;-87
2022/04/13 20:02:40;;;;;;;13.10;5.93;;;18.70;90.00;;;;;;5085212;28;20486;-86
2022/04/13 20:05:13;;;;;;;14.00;6.43;;;18.60;90.30;;;;;;5085889;28;20444;-88
2022/04/13 20:08:24;;;;;;;12.93;5.90;;;18.50;90.50;;;;;;5085609;28;20502;-87
2022/04/13 20:11:21;;;;;;;12.43;5.10;;;18.60;90.70;;;;;;5071251;28;20475;-88
2022/04/13 20:14:01;;;;;;;11.37;6.07;;;18.50;91.00;;;;;;5094518;28;20493;-88
2022/04/13 20:16:43;;;;;;;12.73;5.90;;;18.40;91.50;;;;;;5091257;28;20447;-88
2022/04/13 20:19:22;;;;;;;10.87;6.83;;;18.40;91.80;;;;;;5092415;28;20513;-87
2022/04/13 20:22:04;;;;;;;8.33;6.13;;;18.40;91.90;;;;;;5093231;28;20460;-88
2022/04/13 20:24:54;;;;;;;17.23;6.30;;;18.30;92.10;;;;;;5094817;28;20486;-89
2022/04/13 20:27:23;;;;;;;12.07;6.30;;;18.30;92.40;;;;;;5086353;28;20434;-89
2022/04/13 20:29:53;;;;;;;8.93;5.70;;;18.10;92.70;;;;;;5085690;28;20462;-88
2022/04/13 20:32:31;;;;;;;12.60;7.03;;;18.10;93.10;;;;;;5084762;28;20484;-88
2022/04/13 20:35:18;;;;;;;15.77;6.57;;;18.00;93.30;;;;;;5086131;28;20422;-88
2022/04/13 20:38:00;;;;;;;11.37;5.10;;;17.90;93.90;;;;;;5087262;28;20467;-88
2022/04/13 20:40:30;;;;;;;11.80;6.57;;;17.70;94.30;;;;;;5085898;28;20440;-88
2022/04/13 20:42:59;;;;;;;11.67;5.50;;;17.60;94.90;;;;;;5084205;28;20472;-88
2022/04/13 20:45:36;;;;;;;16.80;6.40;;;17.60;95.40;;;;;;5084811;28;20544;-88
2022/04/13 20:48:05;;;;;;;11.37;6.20;;;17.60;95.40;;;;;;5095021;28;20498;-86
2022/04/13 20:50:32;;;;;;;12.03;6.20;;;17.60;95.80;;;;;;5097073;28;20459;-86
2022/04/13 20:53:02;;;;;;;9.83;4.60;;;17.40;96.20;;;;;;5087957;28;20474;-88
2022/04/13 20:55:50;;;;;;;8.13;4.90;;;17.40;96.60;;;;;;5085510;28;20452;-88
2022/04/13 20:58:18;;;;;;;10.60;5.33;;;17.50;96.70;;;;;;5092704;28;20435;-87
2022/04/13 21:00:50;;;;;;;9.00;4.63;;;17.40;96.90;;;;;;5089642;28;20452;-87
2022/04/13 21:03:17;;;;;;;9.17;5.03;;;17.40;97.00;;;;;;5085350;28;20495;-88
2022/04/13 21:05:46;;;;;;;8.37;4.50;;;17.40;97.10;;;;;;5083778;28;20466;-87